Time;durP1;ratioP1;P1;durP2;ratioP2;P2;SDS_P1;SDS_P2;PMS_P1;PMS_P2;Temp;Humidity;BMP_temperature;BMP_pressure;BME280_temperature;BME280_humidity;BME280_pressure;Samples;Min_cycle;Max_cycle;Signal;HPM_P1;HPM_P2
2022/11/15 00:01:59;;;;;;;;;;;14.60;93.10;;;;;;5115744;28;20018;-69
2022/11/15 00:04:25;;;;;;;;;;;14.70;93.20;;;;;;5115563;28;19930;-66
2022/11/15 00:06:50;;;;;;;;;;;14.80;93.20;;;;;;5116161;28;19950;-66
2022/11/15 00:09:16;;;;;;;;;;;14.90;93.20;;;;;;5114785;28;19931;-63
2022/11/15 00:11:42;;;;;;;;;;;14.90;93.20;;;;;;5114843;28;19970;-64
2022/11/15 00:14:07;;;;;;;;;;;15.00;93.20;;;;;;5114230;28;19919;-64
2022/11/15 00:16:33;;;;;;;;;;;14.80;93.20;;;;;;5114906;28;20443;-65
2022/11/15 00:18:58;;;;;;;;;;;14.90;93.20;;;;;;5097676;28;20064;-64
2022/11/15 00:21:24;;;;;;;;;;;14.80;93.20;;;;;;5114688;28;19978;-64
2022/11/15 00:23:50;;;;;;;;;;;14.60;93.10;;;;;;5115275;28;20027;-65
2022/11/15 00:26:16;;;;;;;;;;;15.10;93.20;;;;;;5114398;28;19924;-64
2022/11/15 00:28:41;;;;;;;;;;;14.80;93.20;;;;;;5115398;28;19931;-64
2022/11/15 00:31:13;;;;;;;;;;;14.70;93.10;;;;;;5114364;28;19924;-64
2022/11/15 00:33:39;;;;;;;;;;;14.90;93.20;;;;;;5113875;28;20277;-64
2022/11/15 00:36:09;;;;;;;;;;;14.50;93.10;;;;;;5115360;28;19977;-64
2022/11/15 00:38:35;;;;;;;;;;;14.70;93.10;;;;;;5115550;28;19924;-64
2022/11/15 00:41:00;;;;;;;;;;;14.90;93.20;;;;;;5115302;28;19928;-64
2022/11/15 00:43:26;;;;;;;;;;;14.60;93.10;;;;;;5114073;28;19923;-64
2022/11/15 00:45:52;;;;;;;;;;;;;;;;;;5113725;28;19931;-64
2022/11/15 00:48:18;;;;;;;;;;;14.80;93.10;;;;;;5115010;28;19930;-64
2022/11/15 00:50:43;;;;;;;;;;;14.80;93.10;;;;;;5115582;28;20292;-64
2022/11/15 00:53:09;;;;;;;;;;;15.00;93.20;;;;;;5114120;28;20297;-64
2022/11/15 00:55:35;;;;;;;;;;;14.70;93.10;;;;;;5115535;28;19946;-65
2022/11/15 00:58:01;;;;;;;;;;;;;;;;;;5113792;28;19927;-63
2022/11/15 01:00:26;;;;;;;;;;;14.70;93.10;;;;;;5114621;28;19924;-65
2022/11/15 01:02:52;;;;;;;;;;;14.90;93.10;;;;;;5114631;28;20039;-64
2022/11/15 01:05:18;;;;;;;;;;;14.70;93.10;;;;;;5114102;28;19923;-63
2022/11/15 01:07:43;;;;;;;;;;;14.60;92.90;;;;;;5114060;28;19969;-64
2022/11/15 01:10:09;;;;;;;;;;;14.70;93.10;;;;;;5113007;28;19931;-67
2022/11/15 01:12:35;;;;;;;;;;;14.80;93.20;;;;;;5114118;28;19923;-64
2022/11/15 01:15:00;;;;;;;;;;;14.60;93.10;;;;;;5114280;28;20055;-64
2022/11/15 01:17:26;;;;;;;;;;;14.80;93.20;;;;;;5113396;28;19923;-65
2022/11/15 01:19:51;;;;;;;;;;;14.80;93.20;;;;;;5114787;28;19924;-65
2022/11/15 01:22:17;;;;;;;;;;;14.60;93.20;;;;;;5113192;28;19920;-63
2022/11/15 01:24:43;;;;;;;;;;;14.50;93.10;;;;;;5113093;28;19928;-64
2022/11/15 01:27:08;;;;;;;;;;;14.90;93.20;;;;;;5112729;28;19975;-63
2022/11/15 01:29:34;;;;;;;;;;;14.60;93.10;;;;;;5096207;28;19930;-64
2022/11/15 01:32:00;;;;;;;;;;;14.60;93.10;;;;;;5113906;28;19927;-65
2022/11/15 01:34:25;;;;;;;;;;;14.70;93.10;;;;;;5112429;28;19924;-66
2022/11/15 01:36:51;;;;;;;;;;;14.60;93.10;;;;;;5113279;28;20052;-63
2022/11/15 01:39:17;;;;;;;;;;;14.50;93.10;;;;;;5113051;28;19931;-64
2022/11/15 01:41:42;;;;;;;;;;;14.40;93.10;;;;;;5113361;28;20011;-68
2022/11/15 01:44:27;;;;;;;;;;;14.60;93.10;;;;;;5113489;28;19924;-65
2022/11/15 01:46:52;;;;;;;;;;;14.60;93.20;;;;;;5114670;28;19928;-66
2022/11/15 01:49:19;;;;;;;;;;;14.60;93.10;;;;;;5113152;28;20305;-63
2022/11/15 01:51:45;;;;;;;;;;;14.50;93.10;;;;;;5113316;28;20015;-64
2022/11/15 01:54:12;;;;;;;;;;;14.50;93.10;;;;;;5111296;28;20373;-65
2022/11/15 01:56:38;;;;;;;;;;;14.50;93.10;;;;;;5112869;28;20003;-64
2022/11/15 01:59:04;;;;;;;;;;;14.40;93.10;;;;;;5112948;28;19930;-65
2022/11/15 02:01:30;;;;;;;;;;;14.60;93.10;;;;;;5113322;28;19924;-64
2022/11/15 02:03:59;;;;;;;;;;;14.50;93.10;;;;;;5112000;28;19946;-64
2022/11/15 02:06:24;;;;;;;;;;;14.40;93.10;;;;;;5112973;28;19923;-64
2022/11/15 02:08:50;;;;;;;;;;;14.50;93.10;;;;;;5113216;28;19980;-64
2022/11/15 02:11:15;;;;;;;;;;;14.40;93.10;;;;;;5096755;28;19924;-64
2022/11/15 02:13:41;;;;;;;;;;;14.50;93.10;;;;;;5113671;28;19948;-65
2022/11/15 02:16:13;;;;;;;;;;;14.20;93.00;;;;;;5112891;28;19971;-68
2022/11/15 02:18:41;;;;;;;;;;;14.60;93.10;;;;;;5113107;28;19924;-66
2022/11/15 02:21:25;;;;;;;;;;;14.80;93.20;;;;;;5114960;28;19924;-64
2022/11/15 02:24:09;;;;;;;;;;;14.70;93.20;;;;;;5112858;28;19971;-64
2022/11/15 02:26:50;;;;;;;;;;;14.70;93.20;;;;;;5113841;28;19924;-66
2022/11/15 02:29:18;;;;;;;;;;;14.80;93.20;;;;;;5113733;28;20369;-65
2022/11/15 02:32:03;;;;;;;;;;;14.50;93.10;;;;;;5114183;28;19924;-66
2022/11/15 02:34:37;;;;;;;;;;;14.60;93.20;;;;;;5114216;28;20383;-64
2022/11/15 02:37:22;;;;;;;;;;;14.70;93.20;;;;;;5114188;28;19928;-64
2022/11/15 02:39:51;;;;;;;;;;;14.50;93.10;;;;;;5112705;28;20079;-64
2022/11/15 02:45:02;;;;;;;;;;;;;;;;;;5093395;28;20305;-70
2022/11/15 02:47:28;;;;;;;;;;;14.80;93.20;;;;;;5112305;28;19930;-65
2022/11/15 02:49:54;;;;;;;;;;;14.50;93.10;;;;;;5112849;28;19930;-63
2022/11/15 02:52:21;;;;;;;;;;;14.80;93.20;;;;;;5114376;28;20065;-65
2022/11/15 02:54:58;;;;;;;;;;;14.80;93.20;;;;;;5115392;28;19984;-65
2022/11/15 02:57:44;;;;;;;;;;;14.70;93.10;;;;;;5116665;28;19923;-66
2022/11/15 03:00:11;;;;;;;;;;;14.90;93.20;;;;;;5116983;28;19976;-64
2022/11/15 03:02:52;;;;;;;;;;;14.60;93.10;;;;;;5099460;28;19947;-64
2022/11/15 03:05:17;;;;;;;;;;;14.60;93.10;;;;;;5132240;27;19931;-64
2022/11/15 03:07:47;;;;;;;;;;;14.60;93.10;;;;;;5116460;28;19924;-63
2022/11/15 03:10:26;;;;;;;;;;;14.90;93.20;;;;;;5117295;28;19924;-63
2022/11/15 03:13:12;;;;;;;;;;;14.60;93.20;;;;;;5098632;28;19924;-66
2022/11/15 03:15:38;;;;;;;;;;;14.90;93.20;;;;;;5067234;28;19923;-66
2022/11/15 03:18:10;;;;;;;;;;;14.50;93.20;;;;;;5098381;28;19930;-64
2022/11/15 03:20:35;;;;;;;;;;;14.40;93.10;;;;;;5099175;28;19923;-64
2022/11/15 03:23:03;;;;;;;;;;;14.70;93.20;;;;;;5115737;28;20018;-65
2022/11/15 03:25:28;;;;;;;;;;;14.50;93.10;;;;;;5104939;28;19945;-64
2022/11/15 03:27:55;;;;;;;;;;;14.80;93.20;;;;;;5078371;28;19932;-66
2022/11/15 03:30:20;;;;;;;;;;;14.70;93.20;;;;;;5095609;28;19928;-64
2022/11/15 03:32:47;;;;;;;;;;;14.70;93.20;;;;;;5100343;28;19941;-65
2022/11/15 03:35:14;;;;;;;;;;;14.60;93.20;;;;;;5114837;28;19924;-63
2022/11/15 03:37:40;;;;;;;;;;;14.70;93.20;;;;;;5115579;28;19924;-65
2022/11/15 03:40:06;;;;;;;;;;;14.60;93.20;;;;;;5115432;28;19924;-65
2022/11/15 03:42:35;;;;;;;;;;;14.60;93.20;;;;;;5115845;28;20301;-64
2022/11/15 03:45:13;;;;;;;;;;;14.70;93.20;;;;;;5115256;28;19984;-64
2022/11/15 03:47:39;;;;;;;;;;;14.80;93.30;;;;;;5115486;28;19924;-64
2022/11/15 03:50:12;;;;;;;;;;;14.90;93.30;;;;;;5116711;28;20384;-64
2022/11/15 03:52:38;;;;;;;;;;;14.60;93.20;;;;;;5115938;28;19924;-64
2022/11/15 03:55:04;;;;;;;;;;;14.60;93.20;;;;;;5114243;28;19920;-64
2022/11/15 03:57:30;;;;;;;;;;;14.60;93.20;;;;;;5098140;28;19935;-64
2022/11/15 03:59:56;;;;;;;;;;;14.70;93.20;;;;;;5098420;28;19924;-64
2022/11/15 04:02:21;;;;;;;;;;;14.80;93.30;;;;;;5116342;28;19963;-64
2022/11/15 04:04:47;;;;;;;;;;;14.60;93.20;;;;;;5114377;28;20015;-64
2022/11/15 04:07:13;;;;;;;;;;;14.50;93.20;;;;;;5114944;28;20020;-64
2022/11/15 04:10:01;;;;;;;;;;;14.80;93.30;;;;;;5115237;28;19923;-65
2022/11/15 04:12:30;;;;;;;;;;;14.60;93.30;;;;;;5114741;28;19958;-65
2022/11/15 04:15:09;;;;;;;;;;;14.70;93.30;;;;;;5115090;28;19923;-65
2022/11/15 04:17:42;;;;;;;;;;;14.80;93.40;;;;;;5097191;28;19924;-64
2022/11/15 04:25:44;;;;;;;;;;;14.70;93.30;;;;;;5110837;28;20004;-65
2022/11/15 04:28:09;;;;;;;;;;;14.60;93.30;;;;;;5114989;28;20342;-65
2022/11/15 04:30:35;;;;;;;;;;;14.80;93.40;;;;;;5115690;28;19923;-64
2022/11/15 04:33:01;;;;;;;;;;;14.70;93.40;;;;;;5116018;28;20128;-64
2022/11/15 04:35:26;;;;;;;;;;;14.60;93.30;;;;;;5115081;28;20289;-64
2022/11/15 04:37:52;;;;;;;;;;;14.80;93.40;;;;;;5114727;28;19963;-63
2022/11/15 04:40:18;;;;;;;;;;;14.60;93.40;;;;;;5113204;28;20014;-66
2022/11/15 04:42:44;;;;;;;;;;;14.70;93.40;;;;;;5115437;28;19969;-64
2022/11/15 04:45:09;;;;;;;;;;;14.80;93.50;;;;;;5114568;28;19924;-64
2022/11/15 04:47:35;;;;;;;;;;;14.70;93.50;;;;;;5116041;28;19931;-66
2022/11/15 04:50:01;;;;;;;;;;;14.80;93.50;;;;;;5097099;28;20018;-63
2022/11/15 04:52:26;;;;;;;;;;;14.50;93.50;;;;;;5114386;28;19924;-64
2022/11/15 04:54:52;;;;;;;;;;;14.60;93.50;;;;;;5113157;28;19924;-65
2022/11/15 04:57:18;;;;;;;;;;;;;;;;;;5114871;28;20023;-69
2022/11/15 04:59:43;;;;;;;;;;;14.60;93.40;;;;;;5112719;28;20549;-64
2022/11/15 05:02:09;;;;;;;;;;;14.60;93.50;;;;;;5113520;28;19962;-64
2022/11/15 05:04:35;;;;;;;;;;;;;;;;;;5115175;28;19924;-69
2022/11/15 05:07:01;;;;;;;;;;;14.50;93.50;;;;;;5112813;28;20018;-65
2022/11/15 05:09:27;;;;;;;;;;;14.70;93.50;;;;;;5115672;28;19937;-65
2022/11/15 05:11:53;;;;;;;;;;;14.50;93.50;;;;;;5113755;28;20412;-66
2022/11/15 05:14:18;;;;;;;;;;;14.60;93.50;;;;;;5113494;28;19928;-63
2022/11/15 05:16:44;;;;;;;;;;;14.90;93.60;;;;;;5112328;28;19992;-68
2022/11/15 05:19:10;;;;;;;;;;;14.80;93.50;;;;;;5096338;28;19928;-65
2022/11/15 05:21:35;;;;;;;;;;;14.40;93.40;;;;;;5115094;28;20386;-65
2022/11/15 05:24:01;;;;;;;;;;;14.80;93.50;;;;;;5096588;28;20381;-64
2022/11/15 05:26:27;;;;;;;;;;;14.50;93.50;;;;;;5113958;28;19923;-64
2022/11/15 05:28:56;;;;;;;;;;;14.70;93.60;;;;;;5114733;28;20406;-64
2022/11/15 05:31:21;;;;;;;;;;;14.60;93.60;;;;;;5113504;28;20300;-64
2022/11/15 05:33:48;;;;;;;;;;;14.80;93.60;;;;;;5113389;28;20018;-64
2022/11/15 05:36:32;;;;;;;;;;;14.80;93.70;;;;;;5095400;28;19927;-64
2022/11/15 05:38:58;;;;;;;;;;;;;;;;;;5113341;28;19931;-63
2022/11/15 05:41:30;;;;;;;;;;;14.50;93.60;;;;;;5113156;28;19928;-65
2022/11/15 05:43:56;;;;;;;;;;;14.40;93.60;;;;;;5113322;28;19924;-64
2022/11/15 05:46:21;;;;;;;;;;;14.80;93.70;;;;;;5095469;28;20345;-64
2022/11/15 05:48:48;;;;;;;;;;;14.80;93.40;;;;;;5112269;28;19957;-64
2022/11/15 05:51:13;;;;;;;;;;;14.70;93.70;;;;;;5095090;28;20707;-65
2022/11/15 05:53:39;;;;;;;;;;;14.80;93.70;;;;;;5096083;28;19924;-64
2022/11/15 05:56:06;;;;;;;;;;;14.70;93.70;;;;;;5110716;28;19923;-64
2022/11/15 05:58:32;;;;;;;;;;;14.50;93.60;;;;;;5096097;28;20380;-64
2022/11/15 06:00:58;;;;;;;;;;;14.90;93.70;;;;;;5112989;28;19931;-63
2022/11/15 06:03:23;;;;;;;;;;;14.80;93.80;;;;;;5112892;28;19927;-64
2022/11/15 06:05:49;;;;;;;;;;;14.70;93.70;;;;;;5111135;28;19924;-65
2022/11/15 06:08:14;;;;;;;;;;;14.70;93.70;;;;;;5113199;28;19920;-64
2022/11/15 06:10:40;;;;;;;;;;;15.00;93.80;;;;;;5114131;28;19927;-66
2022/11/15 06:13:06;;;;;;;;;;;14.70;93.80;;;;;;5112848;28;19924;-64
2022/11/15 06:15:32;;;;;;;;;;;14.80;93.70;;;;;;5111735;28;20023;-64
2022/11/15 06:17:58;;;;;;;;;;;14.90;93.80;;;;;;5113217;28;19920;-64
2022/11/15 06:20:27;;;;;;;;;;;14.80;93.80;;;;;;5113164;28;19931;-65
2022/11/15 06:22:56;;;;;;;;;;;14.80;93.80;;;;;;5113018;28;19924;-64
2022/11/15 06:25:22;;;;;;;;;;;14.60;93.80;;;;;;5113091;28;20395;-64
2022/11/15 06:27:51;;;;;;;;;;;14.70;93.80;;;;;;5115248;28;19924;-64
2022/11/15 06:30:16;;;;;;;;;;;14.70;93.90;;;;;;5117163;28;20342;-65
2022/11/15 06:32:42;;;;;;;;;;;14.50;93.80;;;;;;5118384;28;19924;-64
2022/11/15 06:35:08;;;;;;;;;;;14.90;93.90;;;;;;5117524;28;19943;-64
2022/11/15 06:37:33;;;;;;;;;;;14.90;94.00;;;;;;5116782;28;20389;-64
2022/11/15 06:39:59;;;;;;;;;;;14.90;94.00;;;;;;5117752;28;19931;-70
2022/11/15 06:42:25;;;;;;;;;;;;;;;;;;5116968;28;19923;-65
2022/11/15 06:44:51;;;;;;;;;;;14.90;94.00;;;;;;5116563;28;20347;-64
2022/11/15 06:47:16;;;;;;;;;;;14.70;94.00;;;;;;5116996;28;19923;-64
2022/11/15 06:49:42;;;;;;;;;;;14.60;93.90;;;;;;5115736;28;19930;-65
2022/11/15 06:52:07;;;;;;;;;;;15.00;93.80;;;;;;5117993;28;19930;-65
2022/11/15 06:54:33;;;;;;;;;;;14.70;94.00;;;;;;5117987;28;19931;-65
2022/11/15 06:56:59;;;;;;;;;;;14.70;94.00;;;;;;5116441;28;19976;-66
2022/11/15 06:59:24;;;;;;;;;;;14.90;94.10;;;;;;5117292;28;20024;-64
2022/11/15 07:01:50;;;;;;;;;;;14.70;94.10;;;;;;5117868;28;20015;-65
2022/11/15 07:04:16;;;;;;;;;;;15.00;94.20;;;;;;5116186;28;19963;-64
2022/11/15 07:06:41;;;;;;;;;;;14.90;94.20;;;;;;5116705;28;19927;-64
2022/11/15 07:09:07;;;;;;;;;;;15.00;94.30;;;;;;5117618;28;19924;-64
2022/11/15 07:11:33;;;;;;;;;;;15.10;94.30;;;;;;5116405;28;19931;-64
2022/11/15 07:14:00;;;;;;;;;;;14.90;94.30;;;;;;5116143;28;19935;-64
2022/11/15 07:16:25;;;;;;;;;;;14.80;94.20;;;;;;5117265;28;19924;-64
2022/11/15 07:18:51;;;;;;;;;;;15.00;94.30;;;;;;5115124;28;19967;-64
2022/11/15 07:21:17;;;;;;;;;;;15.10;94.20;;;;;;5116244;28;20002;-65
2022/11/15 07:23:42;;;;;;;;;;;14.70;94.10;;;;;;5115737;28;20525;-64
2022/11/15 07:26:08;;;;;;;;;;;14.80;94.20;;;;;;5117011;28;19947;-65
2022/11/15 07:28:34;;;;;;;;;;;14.80;94.20;;;;;;5098699;28;19924;-64
2022/11/15 07:31:07;;;;;;;;;;;14.90;94.20;;;;;;5097071;28;19924;-65
2022/11/15 07:33:32;;;;;;;;;;;14.80;94.30;;;;;;5117200;28;20299;-64
2022/11/15 07:35:58;;;;;;;;;;;14.90;94.30;;;;;;5117147;28;19930;-64
2022/11/15 07:38:24;;;;;;;;;;;15.00;94.30;;;;;;5115559;28;20288;-65
2022/11/15 07:40:55;;;;;;;;;;;15.10;94.40;;;;;;5116928;28;19927;-65
2022/11/15 07:43:21;;;;;;;;;;;14.90;94.40;;;;;;5114334;28;19928;-64
2022/11/15 07:45:46;;;;;;;;;;;14.90;94.40;;;;;;5116560;28;19931;-64
2022/11/15 07:48:12;;;;;;;;;;;15.10;94.50;;;;;;5116653;28;19930;-64
2022/11/15 07:50:40;;;;;;;;;;;15.20;94.50;;;;;;5115545;28;19924;-64
2022/11/15 07:53:06;;;;;;;;;;;15.00;94.50;;;;;;5115548;28;19923;-64
2022/11/15 07:55:31;;;;;;;;;;;15.00;94.50;;;;;;5116464;28;19978;-64
2022/11/15 07:58:04;;;;;;;;;;;14.90;94.50;;;;;;5115434;28;20032;-64
2022/11/15 08:00:30;;;;;;;;;;;15.30;94.60;;;;;;5115424;28;19935;-64
2022/11/15 08:03:09;;;;;;;;;;;14.90;94.50;;;;;;5073519;28;19930;-64
2022/11/15 08:05:34;;;;;;;;;;;15.10;94.60;;;;;;5097983;28;19924;-65
2022/11/15 08:08:00;;;;;;;;;;;15.20;94.60;;;;;;5116510;28;19934;-65
2022/11/15 08:10:26;;;;;;;;;;;14.90;94.50;;;;;;5111883;28;20381;-63
2022/11/15 08:13:10;;;;;;;;;;;15.00;94.50;;;;;;5108188;28;20010;-64
2022/11/15 08:15:36;;;;;;;;;;;15.20;94.60;;;;;;5114843;28;19923;-64
2022/11/15 08:18:05;;;;;;;;;;;15.00;94.60;;;;;;5116320;28;20262;-64
2022/11/15 08:20:31;;;;;;;;;;;15.10;94.60;;;;;;5115087;28;20281;-64
2022/11/15 08:22:57;;;;;;;;;;;15.20;94.60;;;;;;5096168;28;19924;-64
2022/11/15 08:25:26;;;;;;;;;;;15.10;94.60;;;;;;5116186;28;20343;-63
2022/11/15 08:27:55;;;;;;;;;;;15.10;94.60;;;;;;5097817;28;19924;-63
2022/11/15 08:30:21;;;;;;;;;;;15.10;94.70;;;;;;5114475;28;20018;-63
2022/11/15 08:32:47;;;;;;;;;;;15.20;94.70;;;;;;5112276;28;19978;-64
2022/11/15 08:35:12;;;;;;;;;;;15.20;94.70;;;;;;5114954;28;19924;-64
2022/11/15 08:37:38;;;;;;;;;;;15.20;94.80;;;;;;5115865;28;19924;-63
2022/11/15 08:40:04;;;;;;;;;;;15.30;94.80;;;;;;5114249;28;19970;-64
2022/11/15 08:42:30;;;;;;;;;;;15.00;94.70;;;;;;5092297;28;19935;-64
2022/11/15 08:44:55;;;;;;;;;;;15.20;94.80;;;;;;5093845;28;19924;-63
2022/11/15 08:47:21;;;;;;;;;;;;;;;;;;5095365;28;19977;-65
2022/11/15 08:49:47;;;;;;;;;;;15.30;94.80;;;;;;5094486;28;19924;-63
2022/11/15 08:52:13;;;;;;;;;;;;;;;;;;5094675;28;19930;-69
2022/11/15 08:54:39;;;;;;;;;;;15.20;94.80;;;;;;5114993;28;19923;-65
2022/11/15 08:57:04;;;;;;;;;;;15.30;94.80;;;;;;5110683;28;19969;-64
2022/11/15 08:59:30;;;;;;;;;;;15.50;94.90;;;;;;5114615;28;19935;-64
2022/11/15 09:01:56;;;;;;;;;;;15.30;94.90;;;;;;5115746;28;19931;-64
2022/11/15 09:04:21;;;;;;;;;;;15.10;94.90;;;;;;5114570;28;19924;-64
2022/11/15 09:06:47;;;;;;;;;;;15.40;95.00;;;;;;5115331;28;20444;-66
2022/11/15 09:09:12;;;;;;;;;;;15.20;94.90;;;;;;5114968;28;20377;-64
2022/11/15 09:11:38;;;;;;;;;;;15.40;95.00;;;;;;5114255;28;19967;-64
2022/11/15 09:14:04;;;;;;;;;;;15.30;95.00;;;;;;5112246;28;19923;-64
2022/11/15 09:16:30;;;;;;;;;;;15.50;95.10;;;;;;5113656;28;19928;-64
2022/11/15 09:18:55;;;;;;;;;;;15.50;95.10;;;;;;5114753;28;20031;-64
2022/11/15 09:21:21;;;;;;;;;;;15.30;95.10;;;;;;5115058;28;19939;-65
2022/11/15 09:23:49;;;;;;;;;;;15.40;95.10;;;;;;5113686;28;19931;-64
2022/11/15 09:26:15;;;;;;;;;;;15.50;95.20;;;;;;5113502;28;20372;-66
2022/11/15 09:28:41;;;;;;;;;;;15.30;95.10;;;;;;5113692;28;19930;-64
2022/11/15 09:31:07;;;;;;;;;;;15.40;95.20;;;;;;5114735;28;19946;-65
2022/11/15 09:33:32;;;;;;;;;;;15.30;95.20;;;;;;5094333;28;19924;-64
2022/11/15 09:36:05;;;;;;;;;;;15.60;95.30;;;;;;5113488;28;19936;-64
2022/11/15 09:38:31;;;;;;;;;;;15.50;95.30;;;;;;5113630;28;19946;-67
2022/11/15 09:41:12;;;;;;;;;;;15.40;95.20;;;;;;5112163;28;19924;-64
2022/11/15 09:43:37;;;;;;;;;;;15.60;95.30;;;;;;5114409;28;19923;-64
2022/11/15 09:46:18;;;;;;;;;;;15.40;95.30;;;;;;5113587;28;19924;-64
2022/11/15 09:48:47;;;;;;;;;;;15.30;95.30;;;;;;5093090;28;20374;-65
2022/11/15 09:51:15;;;;;;;;;;;15.80;95.50;;;;;;5093145;28;19974;-65
2022/11/15 09:53:48;;;;;;;;;;;15.70;95.40;;;;;;5093119;28;19924;-64
2022/11/15 09:56:16;;;;;;;;;;;15.50;95.40;;;;;;5091796;28;20288;-64
2022/11/15 09:58:50;;;;;;;;;;;15.50;95.40;;;;;;5108043;28;19931;-64
2022/11/15 10:01:17;;;;;;;;;;;15.60;95.50;;;;;;5094637;28;19931;-64
2022/11/15 10:03:43;;;;;;;;;;;15.50;95.50;;;;;;5114200;28;19947;-64
2022/11/15 10:06:09;;;;;;;;;;;15.50;95.50;;;;;;5114560;28;19924;-66
2022/11/15 10:08:47;;;;;;;;;;;15.50;95.50;;;;;;5079258;28;20014;-65
2022/11/15 10:11:20;;;;;;;;;;;15.50;95.50;;;;;;5114492;28;20300;-65
2022/11/15 10:13:47;;;;;;;;;;;15.70;95.70;;;;;;5112939;28;19968;-65
2022/11/15 10:16:16;;;;;;;;;;;15.50;95.60;;;;;;5096433;28;19931;-66
2022/11/15 10:18:44;;;;;;;;;;;15.70;95.70;;;;;;5112834;28;19971;-65
2022/11/15 10:21:20;;;;;;;;;;;15.50;95.60;;;;;;5112568;28;19935;-67
2022/11/15 10:23:46;;;;;;;;;;;15.70;95.70;;;;;;5112831;28;19968;-66
2022/11/15 10:26:13;;;;;;;;;;;15.60;95.70;;;;;;5111744;28;20011;-65
2022/11/15 10:28:39;;;;;;;;;;;15.40;95.70;;;;;;5108415;28;19931;-64
2022/11/15 10:31:10;;;;;;;;;;;15.50;95.70;;;;;;5112036;28;19923;-65
2022/11/15 10:33:37;;;;;;;;;;;15.80;95.80;;;;;;5112692;28;19924;-64
2022/11/15 10:36:09;;;;;;;;;;;15.70;95.90;;;;;;5113023;28;20324;-63
2022/11/15 10:39:04;;;;;;;;;;;15.70;95.80;;;;;;5113763;28;20475;-64
2022/11/15 10:41:30;;;;;;;;;;;15.50;95.80;;;;;;5108827;28;19927;-68
2022/11/15 10:44:15;;;;;;;;;;;15.60;95.70;;;;;;5099838;28;19928;-66
2022/11/15 10:46:41;;;;;;;;;;;15.90;95.90;;;;;;5092603;28;20309;-67
2022/11/15 10:49:16;;;;;;;;;;;15.50;95.70;;;;;;5093738;28;19920;-63
2022/11/15 10:51:44;;;;;;;;;;;15.60;95.80;;;;;;5093716;28;20004;-64
2022/11/15 10:54:11;;;;;;;;;;;;;;;;;;5092307;28;19931;-66
2022/11/15 10:56:37;;;;;;;;;;;15.50;95.70;;;;;;5112431;28;20392;-63
2022/11/15 10:59:02;;;;;;;;;;;15.70;95.80;;;;;;5113837;28;19977;-66
2022/11/15 11:01:31;;;;;;;;;;;15.80;95.80;;;;;;5113401;28;19923;-63
2022/11/15 11:04:04;;;;;;;;;;;15.40;95.70;;;;;;5112569;28;20035;-64
2022/11/15 11:06:29;;;;;;;;;;;15.90;95.80;;;;;;5095424;28;20415;-66
2022/11/15 11:08:59;;;;;;;;;;;15.70;95.70;;;;;;5095595;28;19924;-64
2022/11/15 11:11:25;;;;;;;;;;;;;;;;;;5086435;28;20036;-66
2022/11/15 11:13:51;;;;;;;;;;;15.60;95.50;;;;;;5113046;28;19924;-63
2022/11/15 11:16:19;;;;;;;;;;;15.70;95.60;;;;;;5116326;28;20301;-65
2022/11/15 11:19:03;;;;;;;;;;;15.60;95.70;;;;;;5116309;28;19924;-64
2022/11/15 11:21:39;;;;;;;;;;;15.50;95.70;;;;;;5115829;28;19924;-64
2022/11/15 11:24:34;;;;;;;;;;;15.60;95.70;;;;;;5115892;28;20397;-64
2022/11/15 11:27:03;;;;;;;;;;;15.60;95.70;;;;;;5098540;28;19928;-64
2022/11/15 11:29:31;;;;;;;;;;;15.90;95.40;;;;;;5113416;28;19924;-63
2022/11/15 11:31:57;;;;;;;;;;;15.70;95.80;;;;;;5115006;28;19924;-64
2022/11/15 11:34:41;;;;;;;;;;;15.70;95.80;;;;;;5115732;28;20385;-63
2022/11/15 11:37:13;;;;;;;;;;;15.60;95.80;;;;;;5114606;28;20452;-64
2022/11/15 11:39:54;;;;;;;;;;;15.80;95.90;;;;;;5114402;28;19974;-64
2022/11/15 11:42:23;;;;;;;;;;;15.90;96.00;;;;;;5115814;28;19928;-66
2022/11/15 11:45:02;;;;;;;;;;;15.80;95.80;;;;;;5115458;28;20018;-64
2022/11/15 11:47:30;;;;;;;;;;;15.80;95.90;;;;;;5098266;28;19982;-64
2022/11/15 11:49:57;;;;;;;;;;;15.80;95.90;;;;;;5097485;28;19931;-63
2022/11/15 11:52:22;;;;;;;;;;;15.70;95.90;;;;;;5098340;28;19931;-68
2022/11/15 11:54:57;;;;;;;;;;;15.90;96.00;;;;;;5115094;28;19923;-67
2022/11/15 11:57:38;;;;;;;;;;;15.60;95.90;;;;;;5115371;28;20296;-66
2022/11/15 12:00:10;;;;;;;;;;;15.70;95.90;;;;;;5089358;28;20014;-63
2022/11/15 12:02:37;;;;;;;;;;;15.80;96.00;;;;;;5097999;28;19924;-64
2022/11/15 12:05:29;;;;;;;;;;;15.80;96.00;;;;;;5113540;27;20297;-65
2022/11/15 12:07:58;;;;;;;;;;;15.80;96.00;;;;;;5032812;28;20112;-64
2022/11/15 12:10:25;;;;;;;;;;;15.80;96.00;;;;;;5000247;28;20417;-66
2022/11/15 12:13:02;;;;;;;;;;;15.70;96.10;;;;;;5001115;28;20283;-64
2022/11/15 12:15:30;;;;;;;;;;;15.80;96.10;;;;;;5000921;28;20306;-64
2022/11/15 12:17:55;;;;;;;;;;;16.10;96.10;;;;;;5000561;28;19931;-64
2022/11/15 12:20:32;;;;;;;;;;;16.20;96.10;;;;;;5015632;28;19929;-64
2022/11/15 12:22:57;;;;;;;;;;;15.80;96.00;;;;;;5000139;28;19929;-64
2022/11/15 12:25:29;;;;;;;;;;;15.90;96.10;;;;;;5015987;28;20391;-64
2022/11/15 12:27:56;;;;;;;;;;;15.80;96.10;;;;;;5016566;28;19925;-64
2022/11/15 12:30:22;;;;;;;;;;;15.90;96.10;;;;;;4999349;28;19925;-64
2022/11/15 12:32:49;;;;;;;;;;;16.00;96.20;;;;;;5016949;28;19932;-64
2022/11/15 12:35:33;;;;;;;;;;;15.70;96.20;;;;;;5016628;28;20299;-64
2022/11/15 12:37:59;;;;;;;;;;;15.70;96.20;;;;;;5015810;28;19925;-65
2022/11/15 12:40:26;;;;;;;;;;;15.90;96.20;;;;;;4999219;28;20444;-64
2022/11/15 12:43:00;;;;;;;;;;;15.90;96.30;;;;;;5016337;28;19971;-64
2022/11/15 12:45:39;;;;;;;;;;;15.90;96.30;;;;;;5083286;28;20049;-64
2022/11/15 12:48:17;;;;;;;;;;;15.90;96.30;;;;;;5093855;28;19924;-64
2022/11/15 12:50:43;;;;;;;;;;;;;;;;;;5115984;27;19932;-64
2022/11/15 12:53:09;;;;;;;;;;;;;;;;;;5102830;28;19928;-65
2022/11/15 12:55:34;;;;;;;;;;;15.90;96.30;;;;;;5114634;28;19924;-66
2022/11/15 12:58:19;;;;;;;;;;;15.80;96.30;;;;;;5113769;28;19924;-63
2022/11/15 13:00:45;;;;;;;;;;;16.10;96.30;;;;;;5113941;28;20289;-64
2022/11/15 13:03:21;;;;;;;;;;;15.90;96.30;;;;;;5114078;28;19930;-64
2022/11/15 13:05:51;;;;;;;;;;;15.90;96.30;;;;;;5096959;28;19927;-64
2022/11/15 13:08:39;;;;;;;;;;;16.10;96.30;;;;;;5096924;28;19977;-64
2022/11/15 13:11:05;;;;;;;;;;;;;;;;;;5113612;28;19924;-64
2022/11/15 13:13:43;;;;;;;;;;;15.90;96.30;;;;;;5115323;28;19924;-64
2022/11/15 13:16:08;;;;;;;;;;;15.90;96.30;;;;;;5113685;28;19931;-64
2022/11/15 13:18:35;;;;;;;;;;;16.10;96.40;;;;;;5114902;28;19924;-66
2022/11/15 13:21:01;;;;;;;;;;;16.20;96.40;;;;;;5096897;28;20399;-66
2022/11/15 13:23:27;;;;;;;;;;;15.80;96.30;;;;;;5096693;28;19924;-65
2022/11/15 13:25:56;;;;;;;;;;;16.10;96.40;;;;;;5113863;28;19924;-65
2022/11/15 13:28:28;;;;;;;;;;;15.90;96.40;;;;;;5096174;28;19924;-66
2022/11/15 13:30:54;;;;;;;;;;;16.00;96.40;;;;;;5113631;28;20023;-64
2022/11/15 13:33:20;;;;;;;;;;;16.10;96.50;;;;;;5113398;28;20014;-64
2022/11/15 13:35:46;;;;;;;;;;;16.00;96.40;;;;;;5114363;28;20002;-65
2022/11/15 13:38:20;;;;;;;;;;;15.80;96.40;;;;;;5113482;28;19930;-64
2022/11/15 13:40:46;;;;;;;;;;;16.00;96.40;;;;;;5113187;28;19923;-65
2022/11/15 13:43:21;;;;;;;;;;;16.00;96.40;;;;;;5098327;28;20385;-64
2022/11/15 13:46:05;;;;;;;;;;;15.60;96.30;;;;;;5105784;28;19924;-66
2022/11/15 13:48:31;;;;;;;;;;;15.90;96.40;;;;;;5112211;28;20427;-65
2022/11/15 13:50:57;;;;;;;;;;;16.00;96.40;;;;;;5101950;28;20377;-64
2022/11/15 13:53:22;;;;;;;;;;;15.90;96.40;;;;;;5093075;28;19969;-64
2022/11/15 13:55:48;;;;;;;;;;;16.00;96.30;;;;;;5093097;28;20393;-65
2022/11/15 13:58:14;;;;;;;;;;;15.90;96.20;;;;;;5092646;28;19972;-65
2022/11/15 14:00:43;;;;;;;;;;;16.00;96.10;;;;;;5092585;28;19988;-66
2022/11/15 14:03:15;;;;;;;;;;;15.80;96.20;;;;;;5109312;28;19924;-63
2022/11/15 14:05:41;;;;;;;;;;;16.00;96.40;;;;;;5113382;28;20265;-64
2022/11/15 14:08:15;;;;;;;;;;;16.10;96.50;;;;;;5114502;28;19931;-68
2022/11/15 14:10:41;;;;;;;;;;;15.70;96.30;;;;;;5114460;28;19931;-64
2022/11/15 14:13:25;;;;;;;;;;;16.00;96.40;;;;;;5114539;28;20300;-65
2022/11/15 14:15:51;;;;;;;;;;;16.10;96.50;;;;;;5112885;28;19924;-64
2022/11/15 14:18:36;;;;;;;;;;;15.90;96.30;;;;;;5112974;28;19950;-64
2022/11/15 14:21:07;;;;;;;;;;;16.10;96.40;;;;;;5114400;28;19923;-64
2022/11/15 14:23:33;;;;;;;;;;;15.90;96.30;;;;;;5095819;28;19976;-64
2022/11/15 14:25:59;;;;;;;;;;;15.90;96.30;;;;;;5113984;28;19927;-65
2022/11/15 14:28:24;;;;;;;;;;;15.70;96.20;;;;;;5114506;28;19931;-65
2022/11/15 14:30:54;;;;;;;;;;;15.90;96.30;;;;;;5114517;28;20048;-65
2022/11/15 14:33:29;;;;;;;;;;;16.20;96.20;;;;;;5114316;28;19950;-65
2022/11/15 14:35:57;;;;;;;;;;;15.90;96.20;;;;;;5089693;28;19931;-64
2022/11/15 14:38:25;;;;;;;;;;;15.90;96.20;;;;;;5092568;28;20385;-64